Arnold, Pennsylvania
Current Conditions -  °F | °C
As of 1:53 PM on Thursday 30 Oct 2014 (Local Time) from KAGC Reporting Station
Overcast Overcast  
Wind Chill: 49°   Ceiling: 5000
Heat Index: 49°   Visibility: 10mi
Dew Point: 33°   Wind: 3mph
Humidity: 54%   Direction: 290°WNW
Pressure: 30.07"   Gusts: NA
Location:  40.5657°N, 79.707°W
Report Text: KAGC 301753Z 29003KT 10SM OVC050 09/01 A3007 RMK AO2 SLP191 T00940006 10106 20033 58008
Loading
Personal Weather Stations






























Interactive Weather Map
Tropical Storm Tracking
New forecast layout! Learn more

10-Day Weather Forecast

Advertisements
Track Severe Weather on mobile